sensor_id;sensor_type;location;lat;lon;timestamp;pressure;altitude;pressure_sealevel;temperature
37414;BMP280;23279;46.472;30.760;2023-05-17T00:01:40;78156.00;;;-146.33
37414;BMP280;23279;46.472;30.760;2023-05-17T00:04:05;78166.19;;;-146.33
37414;BMP280;23279;46.472;30.760;2023-05-17T00:06:31;78156.00;;;-146.33
37414;BMP280;23279;46.472;30.760;2023-05-17T00:08:58;78162.13;;;-146.33
37414;BMP280;23279;46.472;30.760;2023-05-17T00:11:24;78153.97;;;-146.33
37414;BMP280;23279;46.472;30.760;2023-05-17T00:13:49;78149.91;;;-146.33
37414;BMP280;23279;46.472;30.760;2023-05-17T00:16:15;78139.72;;;-146.33
37414;BMP280;23279;46.472;30.760;2023-05-17T00:18:40;78131.59;;;-146.33
37414;BMP280;23279;46.472;30.760;2023-05-17T00:21:06;78117.34;;;-146.33
37414;BMP280;23279;46.472;30.760;2023-05-17T00:23:31;78125.47;;;-146.33
37414;BMP280;23279;46.472;30.760;2023-05-17T00:25:57;78117.34;;;-146.33
37414;BMP280;23279;46.472;30.760;2023-05-17T00:28:22;78113.28;;;-146.33
37414;BMP280;23279;46.472;30.760;2023-05-17T00:30:47;78113.28;;;-146.33
37414;BMP280;23279;46.472;30.760;2023-05-17T00:33:13;78119.38;;;-146.33
37414;BMP280;23279;46.472;30.760;2023-05-17T00:35:38;78129.56;;;-146.33
37414;BMP280;23279;46.472;30.760;2023-05-17T00:38:04;78145.84;;;-146.33
37414;BMP280;23279;46.472;30.760;2023-05-17T00:40:30;78158.03;;;-146.33
37414;BMP280;23279;46.472;30.760;2023-05-17T00:42:55;78178.41;;;-146.33
37414;BMP280;23279;46.472;30.760;2023-05-17T00:45:21;78178.41;;;-146.33
37414;BMP280;23279;46.472;30.760;2023-05-17T00:47:46;78186.53;;;-146.33
37414;BMP280;23279;46.472;30.760;2023-05-17T00:50:12;78192.66;;;-146.33
37414;BMP280;23279;46.472;30.760;2023-05-17T00:52:38;78190.59;;;-146.33
37414;BMP280;23279;46.472;30.760;2023-05-17T00:55:04;78198.75;;;-146.33
37414;BMP280;23279;46.472;30.760;2023-05-17T00:57:30;78190.59;;;-146.33
37414;BMP280;23279;46.472;30.760;2023-05-17T00:59:56;78206.88;;;-146.33
37414;BMP280;23279;46.472;30.760;2023-05-17T01:02:22;78202.81;;;-146.33
37414;BMP280;23279;46.472;30.760;2023-05-17T01:04:48;78215.03;;;-146.33
37414;BMP280;23279;46.472;30.760;2023-05-17T01:07:14;78219.09;;;-146.33
37414;BMP280;23279;46.472;30.760;2023-05-17T01:09:40;78221.13;;;-146.33
37414;BMP280;23279;46.472;30.760;2023-05-17T01:15:11;78227.25;;;-146.33
37414;BMP280;23279;46.472;30.760;2023-05-17T01:18:04;78225.19;;;-146.33
37414;BMP280;23279;46.472;30.760;2023-05-17T01:20:39;78202.81;;;-146.33
37414;BMP280;23279;46.472;30.760;2023-05-17T01:26:16;78194.69;;;-146.33
37414;BMP280;23279;46.472;30.760;2023-05-17T01:28:46;78166.19;;;-146.33
37414;BMP280;23279;46.472;30.760;2023-05-17T01:31:13;78168.22;;;-146.33
37414;BMP280;23279;46.472;30.760;2023-05-17T01:33:39;78178.41;;;-146.33
37414;BMP280;23279;46.472;30.760;2023-05-17T01:36:05;78174.31;;;-146.33
37414;BMP280;23279;46.472;30.760;2023-05-17T01:38:30;78180.44;;;-146.33
37414;BMP280;23279;46.472;30.760;2023-05-17T01:41:14;78166.19;;;-146.33
37414;BMP280;23279;46.472;30.760;2023-05-17T01:49:04;78184.50;;;-146.33
37414;BMP280;23279;46.472;30.760;2023-05-17T01:51:33;78186.53;;;-146.33
37414;BMP280;23279;46.472;30.760;2023-05-17T01:54:04;78178.41;;;-146.33
37414;BMP280;23279;46.472;30.760;2023-05-17T01:56:35;78168.22;;;-146.33
37414;BMP280;23279;46.472;30.760;2023-05-17T01:59:06;78158.03;;;-146.33
37414;BMP280;23279;46.472;30.760;2023-05-17T02:01:32;78147.88;;;-146.33
37414;BMP280;23279;46.472;30.760;2023-05-17T02:03:59;78145.84;;;-146.33
37414;BMP280;23279;46.472;30.760;2023-05-17T02:06:24;78153.97;;;-146.33
37414;BMP280;23279;46.472;30.760;2023-05-17T02:08:50;78147.88;;;-146.33
37414;BMP280;23279;46.472;30.760;2023-05-17T02:11:15;78139.72;;;-146.33
37414;BMP280;23279;46.472;30.760;2023-05-17T02:13:41;78137.69;;;-146.33
37414;BMP280;23279;46.472;30.760;2023-05-17T02:16:06;78129.56;;;-146.33
37414;BMP280;23279;46.472;30.760;2023-05-17T02:18:32;78129.56;;;-146.33
37414;BMP280;23279;46.472;30.760;2023-05-17T02:20:59;78129.56;;;-146.33
37414;BMP280;23279;46.472;30.760;2023-05-17T02:23:25;78129.56;;;-146.33
37414;BMP280;23279;46.472;30.760;2023-05-17T02:25:50;78129.56;;;-146.33
37414;BMP280;23279;46.472;30.760;2023-05-17T02:28:16;78129.56;;;-146.33
37414;BMP280;23279;46.472;30.760;2023-05-17T02:30:41;78121.41;;;-146.33
37414;BMP280;23279;46.472;30.760;2023-05-17T02:33:07;78133.63;;;-146.33
37414;BMP280;23279;46.472;30.760;2023-05-17T02:35:33;78137.69;;;-146.33
37414;BMP280;23279;46.472;30.760;2023-05-17T02:37:59;78125.47;;;-146.33
37414;BMP280;23279;46.472;30.760;2023-05-17T02:40:25;78129.56;;;-146.33
37414;BMP280;23279;46.472;30.760;2023-05-17T02:42:50;78129.56;;;-146.33
37414;BMP280;23279;46.472;30.760;2023-05-17T02:45:16;78133.63;;;-146.33
37414;BMP280;23279;46.472;30.760;2023-05-17T02:47:41;78151.94;;;-146.33
37414;BMP280;23279;46.472;30.760;2023-05-17T02:50:07;78145.84;;;-146.33
37414;BMP280;23279;46.472;30.760;2023-05-17T02:52:33;78158.03;;;-146.33
37414;BMP280;23279;46.472;30.760;2023-05-17T02:54:58;78168.22;;;-146.33
37414;BMP280;23279;46.472;30.760;2023-05-17T02:57:24;78172.28;;;-146.33
37414;BMP280;23279;46.472;30.760;2023-05-17T02:59:49;78174.31;;;-146.33
37414;BMP280;23279;46.472;30.760;2023-05-17T03:02:15;78174.31;;;-146.33
37414;BMP280;23279;46.472;30.760;2023-05-17T03:04:40;78160.09;;;-146.33
37414;BMP280;23279;46.472;30.760;2023-05-17T03:07:06;78174.31;;;-146.33
37414;BMP280;23279;46.472;30.760;2023-05-17T03:09:31;78176.34;;;-146.33
37414;BMP280;23279;46.472;30.760;2023-05-17T03:11:56;78168.22;;;-146.33
37414;BMP280;23279;46.472;30.760;2023-05-17T03:14:22;78166.19;;;-146.33
37414;BMP280;23279;46.472;30.760;2023-05-17T03:16:47;78160.09;;;-146.33
37414;BMP280;23279;46.472;30.760;2023-05-17T03:19:13;78172.28;;;-146.33
37414;BMP280;23279;46.472;30.760;2023-05-17T03:21:38;78158.03;;;-146.33
37414;BMP280;23279;46.472;30.760;2023-05-17T03:24:04;78162.13;;;-146.33
37414;BMP280;23279;46.472;30.760;2023-05-17T03:26:29;78180.44;;;-146.33
37414;BMP280;23279;46.472;30.760;2023-05-17T03:28:57;78162.13;;;-146.33
37414;BMP280;23279;46.472;30.760;2023-05-17T03:31:22;78170.25;;;-146.33
37414;BMP280;23279;46.472;30.760;2023-05-17T03:33:48;78156.00;;;-146.33
37414;BMP280;23279;46.472;30.760;2023-05-17T03:36:13;78164.16;;;-146.33
37414;BMP280;23279;46.472;30.760;2023-05-17T03:38:38;78182.47;;;-146.33
37414;BMP280;23279;46.472;30.760;2023-05-17T03:41:04;78186.53;;;-146.33
37414;BMP280;23279;46.472;30.760;2023-05-17T03:43:30;78184.50;;;-146.33
37414;BMP280;23279;46.472;30.760;2023-05-17T03:45:55;78178.41;;;-146.33
37414;BMP280;23279;46.472;30.760;2023-05-17T03:48:20;78182.47;;;-146.33
37414;BMP280;23279;46.472;30.760;2023-05-17T03:50:46;78158.03;;;-146.33
37414;BMP280;23279;46.472;30.760;2023-05-17T03:53:11;78170.25;;;-146.33
37414;BMP280;23279;46.472;30.760;2023-05-17T03:55:36;78166.19;;;-146.33
37414;BMP280;23279;46.472;30.760;2023-05-17T03:58:03;78174.31;;;-146.33
37414;BMP280;23279;46.472;30.760;2023-05-17T04:00:28;78166.19;;;-146.33
37414;BMP280;23279;46.472;30.760;2023-05-17T04:02:53;78160.09;;;-146.33
37414;BMP280;23279;46.472;30.760;2023-05-17T04:05:19;78153.97;;;-146.33
37414;BMP280;23279;46.472;30.760;2023-05-17T04:07:44;78158.03;;;-146.33
37414;BMP280;23279;46.472;30.760;2023-05-17T04:10:10;78137.69;;;-146.33
37414;BMP280;23279;46.472;30.760;2023-05-17T04:12:36;78133.63;;;-146.33
37414;BMP280;23279;46.472;30.760;2023-05-17T04:15:02;78121.41;;;-146.33
37414;BMP280;23279;46.472;30.760;2023-05-17T04:17:28;78117.34;;;-146.33
37414;BMP280;23279;46.472;30.760;2023-05-17T04:19:53;78113.28;;;-146.33
37414;BMP280;23279;46.472;30.760;2023-05-17T04:22:19;78113.28;;;-146.33
37414;BMP280;23279;46.472;30.760;2023-05-17T04:24:45;78109.22;;;-146.33
37414;BMP280;23279;46.472;30.760;2023-05-17T04:27:10;78088.84;;;-146.33
37414;BMP280;23279;46.472;30.760;2023-05-17T04:29:36;78099.03;;;-146.33
37414;BMP280;23279;46.472;30.760;2023-05-17T04:32:01;78082.75;;;-146.33
37414;BMP280;23279;46.472;30.760;2023-05-17T04:34:27;78101.06;;;-146.33
37414;BMP280;23279;46.472;30.760;2023-05-17T04:36:52;78084.78;;;-146.33
37414;BMP280;23279;46.472;30.760;2023-05-17T04:39:19;78068.50;;;-146.33
37414;BMP280;23279;46.472;30.760;2023-05-17T04:41:44;78086.81;;;-146.33
37414;BMP280;23279;46.472;30.760;2023-05-17T04:44:10;78078.69;;;-146.33
37414;BMP280;23279;46.472;30.760;2023-05-17T04:46:36;78060.38;;;-146.33
37414;BMP280;23279;46.472;30.760;2023-05-17T04:49:01;78044.09;;;-146.33
37414;BMP280;23279;46.472;30.760;2023-05-17T04:51:28;78031.88;;;-146.33
37414;BMP280;23279;46.472;30.760;2023-05-17T04:53:53;78021.69;;;-146.33
37414;BMP280;23279;46.472;30.760;2023-05-17T04:56:19;78021.69;;;-146.33
37414;BMP280;23279;46.472;30.760;2023-05-17T04:58:44;78009.50;;;-146.33
37414;BMP280;23279;46.472;30.760;2023-05-17T05:01:10;77995.25;;;-146.33
37414;BMP280;23279;46.472;30.760;2023-05-17T05:03:36;77978.97;;;-146.33
37414;BMP280;23279;46.472;30.760;2023-05-17T05:06:01;77976.94;;;-146.33
37414;BMP280;23279;46.472;30.760;2023-05-17T05:08:28;77956.59;;;-146.33
37414;BMP280;23279;46.472;30.760;2023-05-17T05:10:54;77926.06;;;-146.33
37414;BMP280;23279;46.472;30.760;2023-05-17T05:13:20;77885.38;;;-146.33
37414;BMP280;23279;46.472;30.760;2023-05-17T05:15:45;77852.81;;;-146.33
37414;BMP280;23279;46.472;30.760;2023-05-17T05:18:11;77818.22;;;-146.33
37414;BMP280;23279;46.472;30.760;2023-05-17T05:20:36;77763.28;;;-146.33
37414;BMP280;23279;46.472;30.760;2023-05-17T05:23:01;77751.06;;;-146.33
37414;BMP280;23279;46.472;30.760;2023-05-17T05:25:30;77751.06;;;-146.33
37414;BMP280;23279;46.472;30.760;2023-05-17T05:27:55;77738.88;;;-146.33
37414;BMP280;23279;46.472;30.760;2023-05-17T05:30:21;77716.47;;;-146.33
37414;BMP280;23279;46.472;30.760;2023-05-17T05:32:49;77685.97;;;-146.33
37414;BMP280;23279;46.472;30.760;2023-05-17T05:35:15;77651.38;;;-146.33
37414;BMP280;23279;46.472;30.760;2023-05-17T05:37:41;77653.41;;;-146.33
37414;BMP280;23279;46.472;30.760;2023-05-17T05:40:07;77549.66;;;-146.33
37414;BMP280;23279;46.472;30.760;2023-05-17T05:42:33;77551.69;;;-146.33
37414;BMP280;23279;46.472;30.760;2023-05-17T05:44:58;77572.03;;;-146.33
37414;BMP280;23279;46.472;30.760;2023-05-17T05:47:24;77588.31;;;-146.33
37414;BMP280;23279;46.472;30.760;2023-05-17T05:49:49;77616.78;;;-146.33
37414;BMP280;23279;46.472;30.760;2023-05-17T05:52:15;77645.28;;;-146.33
37414;BMP280;23279;46.472;30.760;2023-05-17T05:54:40;77653.41;;;-146.33
37414;BMP280;23279;46.472;30.760;2023-05-17T05:57:06;77643.22;;;-146.33
37414;BMP280;23279;46.472;30.760;2023-05-17T05:59:31;77653.41;;;-146.33
37414;BMP280;23279;46.472;30.760;2023-05-17T06:01:56;77698.16;;;-146.33
37414;BMP280;23279;46.472;30.760;2023-05-17T06:04:22;77671.72;;;-146.33
37414;BMP280;23279;46.472;30.760;2023-05-17T06:06:49;77681.88;;;-146.33
37414;BMP280;23279;46.472;30.760;2023-05-17T06:09:14;77653.41;;;-146.33
37414;BMP280;23279;46.472;30.760;2023-05-17T06:11:40;77614.75;;;-146.33
37414;BMP280;23279;46.472;30.760;2023-05-17T06:14:06;77596.44;;;-146.33
37414;BMP280;23279;46.472;30.760;2023-05-17T06:16:33;77616.78;;;-146.33
37414;BMP280;23279;46.472;30.760;2023-05-17T06:18:58;77570.00;;;-146.33
37414;BMP280;23279;46.472;30.760;2023-05-17T06:21:24;77588.31;;;-146.33
37414;BMP280;23279;46.472;30.760;2023-05-17T06:23:49;77572.03;;;-146.33
37414;BMP280;23279;46.472;30.760;2023-05-17T06:26:15;77584.22;;;-146.33
37414;BMP280;23279;46.472;30.760;2023-05-17T06:28:40;77608.66;;;-146.33
37414;BMP280;23279;46.472;30.760;2023-05-17T06:31:06;77631.03;;;-146.33
37414;BMP280;23279;46.472;30.760;2023-05-17T06:33:31;77614.75;;;-146.33
37414;BMP280;23279;46.472;30.760;2023-05-17T06:35:57;77608.66;;;-146.33
37414;BMP280;23279;46.472;30.760;2023-05-17T06:38:22;77612.72;;;-146.33
37414;BMP280;23279;46.472;30.760;2023-05-17T06:40:54;77596.44;;;-146.33
37414;BMP280;23279;46.472;30.760;2023-05-17T06:43:20;77586.25;;;-146.33
37414;BMP280;23279;46.472;30.760;2023-05-17T06:45:45;77608.66;;;-146.33
37414;BMP280;23279;46.472;30.760;2023-05-17T06:48:11;77620.84;;;-146.33
37414;BMP280;23279;46.472;30.760;2023-05-17T06:50:37;77647.31;;;-146.33
37414;BMP280;23279;46.472;30.760;2023-05-17T06:53:03;77645.28;;;-146.33
37414;BMP280;23279;46.472;30.760;2023-05-17T06:55:28;77620.84;;;-146.33
37414;BMP280;23279;46.472;30.760;2023-05-17T06:57:54;77612.72;;;-146.33
37414;BMP280;23279;46.472;30.760;2023-05-17T07:00:20;77643.22;;;-146.33
37414;BMP280;23279;46.472;30.760;2023-05-17T07:02:45;77633.06;;;-146.33
37414;BMP280;23279;46.472;30.760;2023-05-17T07:05:11;77669.69;;;-146.33
37414;BMP280;23279;46.472;30.760;2023-05-17T07:07:36;77653.41;;;-146.33
37414;BMP280;23279;46.472;30.760;2023-05-17T07:10:03;77651.38;;;-146.33
37414;BMP280;23279;46.472;30.760;2023-05-17T07:12:29;77637.13;;;-146.33
37414;BMP280;23279;46.472;30.760;2023-05-17T07:14:54;77649.34;;;-146.33
37414;BMP280;23279;46.472;30.760;2023-05-17T07:17:20;77665.63;;;-146.33
37414;BMP280;23279;46.472;30.760;2023-05-17T07:19:45;77677.81;;;-146.33
37414;BMP280;23279;46.472;30.760;2023-05-17T07:22:15;77633.06;;;-146.33
37414;BMP280;23279;46.472;30.760;2023-05-17T07:24:40;77631.03;;;-146.33
37414;BMP280;23279;46.472;30.760;2023-05-17T07:27:06;77657.47;;;-146.33
37414;BMP280;23279;46.472;30.760;2023-05-17T07:29:31;77639.16;;;-146.33
37414;BMP280;23279;46.472;30.760;2023-05-17T07:31:57;77665.63;;;-146.33
37414;BMP280;23279;46.472;30.760;2023-05-17T07:34:22;77635.09;;;-146.33
37414;BMP280;23279;46.472;30.760;2023-05-17T07:36:47;77651.38;;;-146.33
37414;BMP280;23279;46.472;30.760;2023-05-17T07:39:13;77620.84;;;-146.33
37414;BMP280;23279;46.472;30.760;2023-05-17T07:41:38;77624.91;;;-146.33
37414;BMP280;23279;46.472;30.760;2023-05-17T07:44:04;77641.19;;;-146.33
37414;BMP280;23279;46.472;30.760;2023-05-17T07:46:29;77653.41;;;-146.33
37414;BMP280;23279;46.472;30.760;2023-05-17T07:48:54;77631.03;;;-146.33
37414;BMP280;23279;46.472;30.760;2023-05-17T07:51:20;77702.25;;;-146.33
37414;BMP280;23279;46.472;30.760;2023-05-17T07:53:45;77655.44;;;-146.33
37414;BMP280;23279;46.472;30.760;2023-05-17T07:56:11;77624.91;;;-146.33
37414;BMP280;23279;46.472;30.760;2023-05-17T07:58:36;77612.72;;;-146.33
37414;BMP280;23279;46.472;30.760;2023-05-17T08:01:01;77608.66;;;-146.33
37414;BMP280;23279;46.472;30.760;2023-05-17T08:03:27;77576.09;;;-146.33
37414;BMP280;23279;46.472;30.760;2023-05-17T08:05:52;77657.47;;;-146.33
37414;BMP280;23279;46.472;30.760;2023-05-17T08:08:18;77649.34;;;-146.33
37414;BMP280;23279;46.472;30.760;2023-05-17T08:10:45;77653.41;;;-146.33
37414;BMP280;23279;46.472;30.760;2023-05-17T08:13:10;77616.78;;;-146.33
37414;BMP280;23279;46.472;30.760;2023-05-17T08:15:36;77629.00;;;-146.33
37414;BMP280;23279;46.472;30.760;2023-05-17T08:18:01;77626.97;;;-146.33
37414;BMP280;23279;46.472;30.760;2023-05-17T08:20:26;77620.84;;;-146.33
37414;BMP280;23279;46.472;30.760;2023-05-17T08:22:52;77635.09;;;-146.33
37414;BMP280;23279;46.472;30.760;2023-05-17T08:25:18;77637.13;;;-146.33
37414;BMP280;23279;46.472;30.760;2023-05-17T08:27:44;77598.47;;;-146.33
37414;BMP280;23279;46.472;30.760;2023-05-17T08:30:09;77602.53;;;-146.33
37414;BMP280;23279;46.472;30.760;2023-05-17T08:32:36;77718.53;;;-146.33
37414;BMP280;23279;46.472;30.760;2023-05-17T08:35:01;77653.41;;;-146.33
37414;BMP280;23279;46.472;30.760;2023-05-17T08:37:28;77637.13;;;-146.33
37414;BMP280;23279;46.472;30.760;2023-05-17T08:39:53;77673.75;;;-146.33
37414;BMP280;23279;46.472;30.760;2023-05-17T08:42:21;77698.16;;;-146.33
37414;BMP280;23279;46.472;30.760;2023-05-17T08:44:49;77608.66;;;-146.33
37414;BMP280;23279;46.472;30.760;2023-05-17T08:47:15;77700.22;;;-146.33
37414;BMP280;23279;46.472;30.760;2023-05-17T08:49:50;77673.75;;;-146.33
37414;BMP280;23279;46.472;30.760;2023-05-17T08:52:16;77694.09;;;-146.33
37414;BMP280;23279;46.472;30.760;2023-05-17T08:54:42;77633.06;;;-146.33
37414;BMP280;23279;46.472;30.760;2023-05-17T08:57:09;77582.19;;;-146.33
37414;BMP280;23279;46.472;30.760;2023-05-17T08:59:37;77519.13;;;-146.33
37414;BMP280;23279;46.472;30.760;2023-05-17T09:02:04;77502.84;;;-146.33
37414;BMP280;23279;46.472;30.760;2023-05-17T09:04:30;77537.44;;;-146.33
37414;BMP280;23279;46.472;30.760;2023-05-17T09:06:55;77521.16;;;-146.33
37414;BMP280;23279;46.472;30.760;2023-05-17T09:09:22;77502.84;;;-146.33
37414;BMP280;23279;46.472;30.760;2023-05-17T09:11:47;77525.22;;;-146.33
37414;BMP280;23279;46.472;30.760;2023-05-17T09:14:14;77537.44;;;-146.33
37414;BMP280;23279;46.472;30.760;2023-05-17T09:16:41;77588.31;;;-146.33
37414;BMP280;23279;46.472;30.760;2023-05-17T09:19:13;77513.03;;;-146.33
37414;BMP280;23279;46.472;30.760;2023-05-17T09:21:44;77490.63;;;-146.33
37414;BMP280;23279;46.472;30.760;2023-05-17T09:24:10;77490.63;;;-146.33
37414;BMP280;23279;46.472;30.760;2023-05-17T09:26:40;77470.28;;;-146.33
37414;BMP280;23279;46.472;30.760;2023-05-17T09:29:10;77413.31;;;-146.33
37414;BMP280;23279;46.472;30.760;2023-05-17T09:31:36;77421.47;;;-146.33
37414;BMP280;23279;46.472;30.760;2023-05-17T09:34:01;77423.50;;;-146.33
37414;BMP280;23279;46.472;30.760;2023-05-17T09:36:27;77421.47;;;-146.33
37414;BMP280;23279;46.472;30.760;2023-05-17T09:39:04;77397.06;;;-146.33
37414;BMP280;23279;46.472;30.760;2023-05-17T09:41:32;77403.16;;;-146.33
37414;BMP280;23279;46.472;30.760;2023-05-17T09:44:02;77395.03;;;-146.33
37414;BMP280;23279;46.472;30.760;2023-05-17T09:46:31;77429.59;;;-146.33
37414;BMP280;23279;46.472;30.760;2023-05-17T09:49:00;77413.31;;;-146.33
37414;BMP280;23279;46.472;30.760;2023-05-17T09:54:06;77388.91;;;-146.33
37414;BMP280;23279;46.472;30.760;2023-05-17T09:56:32;77456.06;;;-146.33
37414;BMP280;23279;46.472;30.760;2023-05-17T09:59:00;77441.81;;;-146.33
37414;BMP280;23279;46.472;30.760;2023-05-17T10:01:27;77388.91;;;-146.33
37414;BMP280;23279;46.472;30.760;2023-05-17T10:03:53;77354.34;;;-146.33
37414;BMP280;23279;46.472;30.760;2023-05-17T10:06:21;77421.47;;;-146.33
37414;BMP280;23279;46.472;30.760;2023-05-17T10:08:50;77413.31;;;-146.33
37414;BMP280;23279;46.472;30.760;2023-05-17T10:11:17;77401.13;;;-146.33
37414;BMP280;23279;46.472;30.760;2023-05-17T10:13:57;77392.97;;;-146.33
37414;BMP280;23279;46.472;30.760;2023-05-17T10:16:27;77437.75;;;-146.33
37414;BMP280;23279;46.472;30.760;2023-05-17T10:18:53;77409.25;;;-146.33
37414;BMP280;23279;46.472;30.760;2023-05-17T10:21:19;77376.72;;;-146.33
37414;BMP280;23279;46.472;30.760;2023-05-17T10:23:47;77413.31;;;-146.33
37414;BMP280;23279;46.472;30.760;2023-05-17T10:26:13;77472.34;;;-146.33
37414;BMP280;23279;46.472;30.760;2023-05-17T10:28:41;77456.06;;;-146.33
37414;BMP280;23279;46.472;30.760;2023-05-17T10:31:06;77392.97;;;-146.33
37414;BMP280;23279;46.472;30.760;2023-05-17T10:33:32;77346.19;;;-146.33
37414;BMP280;23279;46.472;30.760;2023-05-17T10:35:58;77362.47;;;-146.33
37414;BMP280;23279;46.472;30.760;2023-05-17T10:38:25;77344.16;;;-146.33
37414;BMP280;23279;46.472;30.760;2023-05-17T10:40:52;77319.75;;;-146.33
37414;BMP280;23279;46.472;30.760;2023-05-17T10:43:18;77315.69;;;-146.33
37414;BMP280;23279;46.472;30.760;2023-05-17T10:45:44;77340.09;;;-146.33
37414;BMP280;23279;46.472;30.760;2023-05-17T10:48:14;77443.84;;;-146.33
37414;BMP280;23279;46.472;30.760;2023-05-17T10:50:39;77386.88;;;-146.33
37414;BMP280;23279;46.472;30.760;2023-05-17T10:53:09;77340.09;;;-146.33
37414;BMP280;23279;46.472;30.760;2023-05-17T10:55:42;77305.50;;;-146.33
37414;BMP280;23279;46.472;30.760;2023-05-17T10:58:18;77293.28;;;-146.33
37414;BMP280;23279;46.472;30.760;2023-05-17T11:00:44;77287.19;;;-146.33
37414;BMP280;23279;46.472;30.760;2023-05-17T11:05:43;77260.75;;;-146.33
37414;BMP280;23279;46.472;30.760;2023-05-17T11:08:16;77275.00;;;-146.33
37414;BMP280;23279;46.472;30.760;2023-05-17T11:11:06;77364.50;;;-146.33
37414;BMP280;23279;46.472;30.760;2023-05-17T11:13:33;77340.09;;;-146.33
37414;BMP280;23279;46.472;30.760;2023-05-17T11:16:06;77331.94;;;-146.33
37414;BMP280;23279;46.472;30.760;2023-05-17T11:18:52;77336.03;;;-146.33
37414;BMP280;23279;46.472;30.760;2023-05-17T11:21:18;77478.44;;;-146.33
37414;BMP280;23279;46.472;30.760;2023-05-17T11:23:46;77498.78;;;-146.33
37414;BMP280;23279;46.472;30.760;2023-05-17T11:28:41;77559.81;;;-146.33
37414;BMP280;23279;46.472;30.760;2023-05-17T11:31:07;77527.25;;;-146.33
37414;BMP280;23279;46.472;30.760;2023-05-17T11:33:43;77555.75;;;-146.33
37414;BMP280;23279;46.472;30.760;2023-05-17T11:36:19;77551.69;;;-146.33
37414;BMP280;23279;46.472;30.760;2023-05-17T11:38:51;77498.78;;;-146.33
37414;BMP280;23279;46.472;30.760;2023-05-17T11:41:36;77537.44;;;-146.33
37414;BMP280;23279;46.472;30.760;2023-05-17T11:44:02;77547.59;;;-146.33
37414;BMP280;23279;46.472;30.760;2023-05-17T11:46:29;77545.56;;;-146.33
37414;BMP280;23279;46.472;30.760;2023-05-17T11:48:55;77476.41;;;-146.33
37414;BMP280;23279;46.472;30.760;2023-05-17T11:51:22;77429.59;;;-146.33
37414;BMP280;23279;46.472;30.760;2023-05-17T11:53:48;77466.22;;;-146.33
37414;BMP280;23279;46.472;30.760;2023-05-17T11:56:15;77411.28;;;-146.33
37414;BMP280;23279;46.472;30.760;2023-05-17T11:58:41;77397.06;;;-146.33
37414;BMP280;23279;46.472;30.760;2023-05-17T12:01:07;77478.44;;;-146.33
37414;BMP280;23279;46.472;30.760;2023-05-17T12:03:34;77470.28;;;-146.33
37414;BMP280;23279;46.472;30.760;2023-05-17T12:06:09;77464.19;;;-146.33
37414;BMP280;23279;46.472;30.760;2023-05-17T12:08:37;77447.91;;;-146.33
37414;BMP280;23279;46.472;30.760;2023-05-17T12:11:06;77429.59;;;-146.33
37414;BMP280;23279;46.472;30.760;2023-05-17T12:13:33;77423.50;;;-146.33
37414;BMP280;23279;46.472;30.760;2023-05-17T12:16:06;77409.25;;;-146.33
37414;BMP280;23279;46.472;30.760;2023-05-17T12:18:34;77441.81;;;-146.33
37414;BMP280;23279;46.472;30.760;2023-05-17T12:21:01;77466.22;;;-146.33
37414;BMP280;23279;46.472;30.760;2023-05-17T12:23:32;77415.38;;;-146.33
37414;BMP280;23279;46.472;30.760;2023-05-17T12:26:27;77356.38;;;-146.33
37414;BMP280;23279;46.472;30.760;2023-05-17T12:28:54;77392.97;;;-146.33
37414;BMP280;23279;46.472;30.760;2023-05-17T12:31:36;77362.47;;;-146.33
37414;BMP280;23279;46.472;30.760;2023-05-17T12:34:04;77358.41;;;-146.33
37414;BMP280;23279;46.472;30.760;2023-05-17T12:36:31;77433.69;;;-146.33
37414;BMP280;23279;46.472;30.760;2023-05-17T12:38:58;77411.28;;;-146.33
37414;BMP280;23279;46.472;30.760;2023-05-17T12:41:24;77429.59;;;-146.33
37414;BMP280;23279;46.472;30.760;2023-05-17T12:43:50;77419.44;;;-146.33
37414;BMP280;23279;46.472;30.760;2023-05-17T12:46:18;77490.63;;;-146.33
37414;BMP280;23279;46.472;30.760;2023-05-17T12:48:45;77551.69;;;-146.33
37414;BMP280;23279;46.472;30.760;2023-05-17T12:51:15;77547.59;;;-146.33
37414;BMP280;23279;46.472;30.760;2023-05-17T12:53:43;77563.88;;;-146.33
37414;BMP280;23279;46.472;30.760;2023-05-17T12:56:19;77557.78;;;-146.33
37414;BMP280;23279;46.472;30.760;2023-05-17T13:01:38;77513.03;;;-146.33
37414;BMP280;23279;46.472;30.760;2023-05-17T13:04:04;77480.47;;;-146.33
37414;BMP280;23279;46.472;30.760;2023-05-17T13:09:08;77476.41;;;-146.33
37414;BMP280;23279;46.472;30.760;2023-05-17T13:11:33;77468.25;;;-146.33
37414;BMP280;23279;46.472;30.760;2023-05-17T13:14:05;77462.16;;;-146.33
37414;BMP280;23279;46.472;30.760;2023-05-17T13:16:30;77411.28;;;-146.33
37414;BMP280;23279;46.472;30.760;2023-05-17T13:18:56;77445.88;;;-146.33
37414;BMP280;23279;46.472;30.760;2023-05-17T13:21:22;77458.09;;;-146.33
37414;BMP280;23279;46.472;30.760;2023-05-17T13:23:48;77506.91;;;-146.33
37414;BMP280;23279;46.472;30.760;2023-05-17T13:26:15;77490.63;;;-146.33
37414;BMP280;23279;46.472;30.760;2023-05-17T13:28:41;77535.41;;;-146.33
37414;BMP280;23279;46.472;30.760;2023-05-17T13:31:06;77567.94;;;-146.33
37414;BMP280;23279;46.472;30.760;2023-05-17T13:33:32;77523.19;;;-146.33
37414;BMP280;23279;46.472;30.760;2023-05-17T13:35:57;77476.41;;;-146.33
37414;BMP280;23279;46.472;30.760;2023-05-17T13:38:23;77498.78;;;-146.33
37414;BMP280;23279;46.472;30.760;2023-05-17T13:40:48;77547.59;;;-146.33
37414;BMP280;23279;46.472;30.760;2023-05-17T13:43:14;77574.06;;;-146.33
37414;BMP280;23279;46.472;30.760;2023-05-17T13:45:40;77584.22;;;-146.33
37414;BMP280;23279;46.472;30.760;2023-05-17T13:48:05;77610.69;;;-146.33
37414;BMP280;23279;46.472;30.760;2023-05-17T13:50:30;77622.88;;;-146.33
37414;BMP280;23279;46.472;30.760;2023-05-17T13:52:56;77639.16;;;-146.33
37414;BMP280;23279;46.472;30.760;2023-05-17T13:55:21;77620.84;;;-146.33